Time;durP1;ratioP1;P1;durP2;ratioP2;P2;SDS_P1;SDS_P2;PMS_P1;PMS_P2;Temp;Humidity;BMP_temperature;BMP_pressure;BME280_temperature;BME280_humidity;BME280_pressure;Samples;Min_cycle;Max_cycle;Signal;HPM_P1;HPM_P2
2023/12/01 00:01:45;;;;;;;48.20;29.23;;;;;;;-0.56;100.00;100248.03;5045206;28;20021;-72
2023/12/01 00:04:11;;;;;;;47.15;28.75;;;;;;;-0.55;100.00;100244.63;5043854;28;20022;-71
2023/12/01 00:06:37;;;;;;;46.88;28.65;;;;;;;-0.56;100.00;100252.34;5046265;28;20032;-70
2023/12/01 00:09:03;;;;;;;47.55;28.65;;;;;;;-0.56;100.00;100253.22;5042805;28;20060;-71
2023/12/01 00:11:28;;;;;;;47.63;29.23;;;;;;;-0.60;100.00;100251.34;5044800;28;20033;-70
2023/12/01 00:13:53;;;;;;;46.95;27.73;;;;;;;-0.61;100.00;100257.38;5043904;28;20362;-71
2023/12/01 00:16:19;;;;;;;47.22;27.75;;;;;;;-0.65;100.00;100258.06;5044926;28;20544;-71
2023/12/01 00:18:44;;;;;;;47.05;27.88;;;;;;;-0.67;100.00;100258.81;5045008;28;20484;-72
2023/12/01 00:21:10;;;;;;;49.03;29.17;;;;;;;-0.65;100.00;100262.38;5043502;28;20083;-72
2023/12/01 00:23:35;;;;;;;48.17;29.10;;;;;;;-0.66;100.00;100266.66;5045906;28;20115;-71
2023/12/01 00:26:01;;;;;;;49.42;29.13;;;;;;;-0.65;100.00;100270.19;5042557;28;20116;-72
2023/12/01 00:28:26;;;;;;;46.83;27.55;;;;;;;-0.68;100.00;100268.34;5045699;28;20078;-72
2023/12/01 00:30:52;;;;;;;48.05;28.10;;;;;;;-0.67;100.00;100264.00;5043623;28;20033;-71
2023/12/01 00:33:17;;;;;;;47.72;27.95;;;;;;;-0.66;100.00;100266.66;5044135;28;20056;-71
2023/12/01 00:35:42;;;;;;;49.22;29.33;;;;;;;-0.62;100.00;100272.88;5044973;28;20067;-71
2023/12/01 00:38:08;;;;;;;50.38;29.10;;;;;;;-0.61;100.00;100272.03;5042712;28;20473;-70
2023/12/01 00:40:33;;;;;;;47.55;27.23;;;;;;;-0.60;100.00;100271.22;5044968;28;20484;-71
2023/12/01 00:42:58;;;;;;;49.72;30.10;;;;;;;-0.61;100.00;100272.03;5042758;28;20034;-72
2023/12/01 00:45:24;;;;;;;47.25;27.48;;;;;;;-0.61;100.00;100282.44;5045016;28;20116;-71
2023/12/01 00:47:49;;;;;;;48.47;26.50;;;;;;;-0.69;100.00;100276.94;5043756;28;20029;-71
2023/12/01 00:50:14;;;;;;;45.33;25.02;;;;;;;-0.70;100.00;100277.75;5043487;28;20369;-67
2023/12/01 00:52:40;;;;;;;48.42;27.25;;;;;;;-0.79;100.00;100280.84;5045046;28;20439;-71
2023/12/01 00:55:05;;;;;;;49.55;28.25;;;;;;;-0.83;100.00;100281.59;5042244;28;20030;-68
2023/12/01 00:57:31;;;;;;;48.63;27.92;;;;;;;-0.82;100.00;100280.72;5042008;28;20029;-72
2023/12/01 00:59:56;;;;;;;49.40;26.95;;;;;;;-0.81;100.00;100281.66;5044814;28;20025;-73
2023/12/01 01:02:22;;;;;;;48.42;27.85;;;;;;;-0.79;100.00;100286.06;5043266;28;20399;-73
2023/12/01 01:04:47;;;;;;;49.55;28.00;;;;;;;-0.79;100.00;100285.19;5043449;28;20044;-71
2023/12/01 01:07:12;;;;;;;46.22;26.98;;;;;;;-0.81;100.00;100287.72;5044248;28;20090;-68
2023/12/01 01:09:38;;;;;;;46.17;26.45;;;;;;;-0.80;100.00;100284.31;5042055;28;20125;-67
2023/12/01 01:12:04;;;;;;;46.42;26.83;;;;;;;-0.83;100.00;100291.06;5045272;28;20036;-67
2023/12/01 01:14:29;;;;;;;48.88;27.45;;;;;;;-0.83;100.00;100297.16;5041926;28;20025;-74
2023/12/01 01:16:54;;;;;;;48.15;27.02;;;;;;;-0.84;100.00;100297.09;5044443;28;20129;-71
2023/12/01 01:19:20;;;;;;;49.13;27.17;;;;;;;-0.84;100.00;100297.97;5042984;28;20029;-73
2023/12/01 01:21:45;;;;;;;47.53;26.77;;;;;;;-0.83;100.00;100301.44;5043465;28;20037;-73
2023/12/01 01:24:10;;;;;;;47.75;26.90;;;;;;;-0.84;100.00;100297.97;5044130;28;20463;-71
2023/12/01 01:26:36;;;;;;;49.35;27.75;;;;;;;-0.88;100.00;100309.91;5041445;28;20032;-68
2023/12/01 01:29:02;;;;;;;49.33;27.95;;;;;;;-0.89;100.00;100304.66;5045303;28;20040;-70
2023/12/01 01:31:27;;;;;;;48.47;26.88;;;;;;;-0.91;100.00;100306.31;5041848;28;20061;-69
2023/12/01 01:33:52;;;;;;;50.33;27.45;;;;;;;-0.97;100.00;100311.25;5043694;28;20030;-68
2023/12/01 01:36:18;;;;;;;49.17;27.13;;;;;;;-0.98;100.00;100302.56;5042119;28;20427;-67
2023/12/01 01:38:43;;;;;;;50.90;28.65;;;;;;;-0.97;100.00;100308.66;5042481;28;20112;-69
2023/12/01 01:41:09;;;;;;;51.15;27.70;;;;;;;-0.99;100.00;100307.69;5044227;28;20077;-69
2023/12/01 01:43:34;;;;;;;48.97;27.13;;;;;;;-0.99;100.00;100308.59;5041452;28;20036;-72
2023/12/01 01:46:05;;;;;;;48.35;26.88;;;;;;;-0.97;100.00;100308.66;5044256;28;20111;-73
2023/12/01 01:48:32;;;;;;;49.28;27.05;;;;;;;-0.91;100.00;100308.91;5041154;28;20030;-68
2023/12/01 01:50:58;;;;;;;52.08;27.83;;;;;;;-0.92;100.00;100307.13;5043842;28;20563;-70
2023/12/01 01:53:24;;;;;;;52.63;28.42;;;;;;;-0.92;100.00;100314.91;5042047;28;20122;-67
2023/12/01 01:55:50;;;;;;;49.90;27.20;;;;;;;-0.90;100.00;100318.47;5042889;28;20068;-69
2023/12/01 01:58:16;;;;;;;50.10;27.63;;;;;;;-0.97;100.00;100324.22;5043253;28;20052;-69
2023/12/01 02:00:44;;;;;;;50.50;27.90;;;;;;;-0.94;100.00;100325.22;5041636;28;20443;-67
2023/12/01 02:03:09;;;;;;;48.08;26.58;;;;;;;-0.96;100.00;100325.97;5043896;28;20029;-65
2023/12/01 02:05:35;;;;;;;51.33;28.50;;;;;;;-0.97;100.00;100327.69;5041046;28;20075;-67
2023/12/01 02:08:19;;;;;;;52.55;28.42;;;;;;;-0.94;100.00;100337.34;5044024;28;20503;-65
2023/12/01 02:10:44;;;;;;;49.88;26.65;;;;;;;-0.97;100.00;100337.22;5039677;28;20034;-68
2023/12/01 02:13:10;;;;;;;51.38;27.25;;;;;;;-1.04;100.00;100336.03;5043624;28;20029;-69
2023/12/01 02:15:35;;;;;;;50.15;27.25;;;;;;;-1.10;100.00;100341.84;5041036;28;20057;-68
2023/12/01 02:18:01;;;;;;;51.65;27.98;;;;;;;-1.16;100.00;100335.53;5044398;28;20063;-67
2023/12/01 02:20:26;;;;;;;51.95;26.75;;;;;;;-1.21;100.00;100339.63;5041515;28;20068;-65
2023/12/01 02:22:52;;;;;;;50.53;26.48;;;;;;;-1.24;100.00;100338.69;5042902;28;20057;-70
2023/12/01 02:25:17;;;;;;;48.28;25.63;;;;;;;-1.24;100.00;100338.69;5042521;28;20036;-69
2023/12/01 02:27:42;;;;;;;52.53;27.40;;;;;;;-1.27;100.00;100342.81;5041650;28;20473;-71
2023/12/01 02:30:10;;;;;;;51.20;26.67;;;;;;;-1.25;100.00;100336.00;5044061;28;20069;-70
2023/12/01 02:32:35;;;;;;;49.72;26.13;;;;;;;-1.35;100.00;100334.72;5040512;28;20424;-71
2023/12/01 02:35:01;;;;;;;50.63;27.20;;;;;;;-1.33;100.00;100338.25;5044093;28;20034;-69
2023/12/01 02:37:26;;;;;;;52.10;27.50;;;;;;;-1.32;100.00;100345.22;5041288;28;20048;-70
2023/12/01 02:39:51;;;;;;;51.00;27.40;;;;;;;-1.33;100.00;100345.16;5041303;28;20093;-71
2023/12/01 02:42:16;;;;;;;53.95;27.77;;;;;;;-1.28;100.00;100341.03;5042980;28;20056;-72
2023/12/01 02:44:42;;;;;;;54.70;29.58;;;;;;;-1.28;100.00;100341.03;5039963;28;20033;-69
2023/12/01 02:47:09;;;;;;;55.67;28.92;;;;;;;-1.25;100.00;100346.38;5043929;28;20110;-71
2023/12/01 02:49:35;;;;;;;55.30;29.63;;;;;;;-1.28;100.00;100346.22;5040707;28;20036;-72
2023/12/01 02:52:00;;;;;;;54.63;28.08;;;;;;;-1.27;100.00;100335.03;5043926;28;20103;-70
2023/12/01 02:54:25;;;;;;;53.65;28.80;;;;;;;-1.33;100.00;100332.19;5041357;28;20072;-72
2023/12/01 02:56:51;;;;;;;54.47;28.83;;;;;;;-1.30;100.00;100340.09;5042800;28;20038;-71
2023/12/01 02:59:16;;;;;;;54.80;28.80;;;;;;;-1.31;100.00;100334.03;5042479;28;20376;-72
2023/12/01 03:01:42;;;;;;;54.10;29.00;;;;;;;-1.23;100.00;100332.63;5041182;28;20427;-72
2023/12/01 03:04:07;;;;;;;52.25;28.13;;;;;;;-1.21;100.00;100339.63;5046942;28;20550;-71
2023/12/01 03:06:32;;;;;;;53.55;29.35;;;;;;;-1.22;100.00;100333.56;5044055;28;20029;-72
2023/12/01 03:08:58;;;;;;;54.60;28.80;;;;;;;-1.18;100.00;100338.06;5047033;28;20140;-71
2023/12/01 03:11:24;;;;;;;54.78;28.67;;;;;;;-1.23;100.00;100337.84;5045414;28;20069;-70
2023/12/01 03:13:49;;;;;;;53.83;28.98;;;;;;;-1.23;100.00;100339.56;5045584;28;20030;-73
2023/12/01 03:16:16;;;;;;;56.55;29.88;;;;;;;-1.22;100.00;100336.16;5046444;28;20040;-74
2023/12/01 03:18:41;;;;;;;57.33;30.42;;;;;;;-1.15;100.00;100345.97;5044590;28;20031;-73
2023/12/01 03:21:12;;;;;;;55.50;29.65;;;;;;;-1.11;100.00;100350.44;5047283;28;20443;-73
2023/12/01 03:23:39;;;;;;;54.35;29.67;;;;;;;-1.13;100.00;100346.91;5044115;28;20037;-73
2023/12/01 03:26:05;;;;;;;54.67;29.20;;;;;;;-1.16;100.00;100346.78;5047081;28;20036;-74
2023/12/01 03:28:31;;;;;;;56.33;28.80;;;;;;;-1.16;100.00;100348.50;5043899;28;20033;-73
2023/12/01 03:30:56;;;;;;;54.78;27.80;;;;;;;-1.18;100.00;100345.84;5045310;28;20450;-73
2023/12/01 03:33:21;;;;;;;58.40;29.40;;;;;;;-1.19;100.00;100346.66;5045042;28;20060;-73
2023/12/01 03:35:47;;;;;;;56.90;28.60;;;;;;;-1.18;100.00;100348.44;5044877;28;20068;-73
2023/12/01 03:38:12;;;;;;;58.10;28.73;;;;;;;-1.20;100.00;100352.66;5046484;28;20128;-73
2023/12/01 03:40:39;;;;;;;61.17;30.45;;;;;;;-1.19;100.00;100357.03;5043637;28;20036;-73
2023/12/01 03:43:05;;;;;;;61.10;30.38;;;;;;;-1.20;100.00;100349.19;5047073;28;20033;-73
2023/12/01 03:45:30;;;;;;;59.80;30.33;;;;;;;-1.20;100.00;100344.88;5043634;28;20484;-73
2023/12/01 03:47:56;;;;;;;66.90;31.65;;;;;;;-1.20;100.00;100351.78;5045902;28;20064;-74
2023/12/01 03:50:21;;;;;;;64.13;31.88;;;;;;;-1.23;100.00;100355.13;5044753;28;20029;-73
2023/12/01 03:52:49;;;;;;;67.68;31.48;;;;;;;-1.18;100.00;100361.41;5045033;28;20041;-73
2023/12/01 03:55:15;;;;;;;63.78;30.30;;;;;;;-1.20;100.00;100359.56;5045680;28;20033;-72
2023/12/01 03:57:42;;;;;;;67.25;31.20;;;;;;;-1.20;100.00;100359.56;5043582;28;20112;-73
2023/12/01 04:00:18;;;;;;;65.18;30.85;;;;;;;-1.19;100.00;100362.22;5046756;28;20032;-73
2023/12/01 04:02:45;;;;;;;65.05;29.58;;;;;;;-1.23;100.00;100373.28;5041439;28;20485;-73
2023/12/01 04:05:19;;;;;;;69.88;32.10;;;;;;;-1.26;100.00;100376.59;5045895;28;20071;-71
2023/12/01 04:07:45;;;;;;;70.80;32.22;;;;;;;-1.34;100.00;100372.81;5043808;28;20032;-73
2023/12/01 04:10:11;;;;;;;73.00;32.95;;;;;;;-1.36;100.00;100382.22;5044685;28;20392;-73
2023/12/01 04:12:44;;;;;;;69.85;32.45;;;;;;;-1.37;100.00;100384.72;5043086;28;20032;-66
2023/12/01 04:15:12;;;;;;;72.15;31.92;;;;;;;-1.40;100.00;100385.47;5039570;28;20031;-68
2023/12/01 04:17:42;;;;;;;66.05;29.67;;;;;;;-1.47;100.00;100384.31;5046460;28;20036;-71
2023/12/01 04:20:20;;;;;;;63.88;28.73;;;;;;;-1.50;100.00;100394.56;5041643;28;20076;-71
2023/12/01 04:22:50;;;;;;;68.93;30.17;;;;;;;-1.60;100.00;100393.25;5041609;28;20057;-67
2023/12/01 04:25:16;;;;;;;64.18;29.70;;;;;;;-1.62;100.00;100393.97;5044912;28;20473;-70
2023/12/01 04:27:44;;;;;;;67.93;30.30;;;;;;;-1.67;100.00;100404.16;5043319;28;20167;-67
2023/12/01 04:30:14;;;;;;;65.25;29.27;;;;;;;-1.61;100.00;100400.94;5044582;28;20122;-66
2023/12/01 04:32:52;;;;;;;70.13;31.63;;;;;;;-1.55;100.00;100408.13;5042582;28;20021;-66
2023/12/01 04:35:21;;;;;;;67.13;29.20;;;;;;;-1.56;100.00;100407.22;5044443;28;20089;-69
2023/12/01 04:37:47;;;;;;;65.35;29.48;;;;;;;-1.56;100.00;100401.16;5043826;28;20032;-67
2023/12/01 04:40:15;;;;;;;66.22;30.23;;;;;;;-1.52;100.00;100414.31;5045357;28;20029;-70
2023/12/01 04:42:49;;;;;;;65.95;30.00;;;;;;;-1.51;100.00;100412.66;5042827;28;20033;-70
2023/12/01 04:45:20;;;;;;;68.07;30.45;;;;;;;-1.51;100.00;100416.13;5044853;28;20025;-73
2023/12/01 04:47:50;;;;;;;68.97;31.10;;;;;;;-1.52;100.00;100408.25;5043420;28;20026;-71
2023/12/01 04:50:18;;;;;;;68.60;30.67;;;;;;;-1.52;100.00;100414.31;5044627;28;20029;-70
2023/12/01 04:52:52;;;;;;;64.15;29.52;;;;;;;-1.52;100.00;100418.63;5041543;28;20064;-71
2023/12/01 04:55:20;;;;;;;69.70;31.05;;;;;;;-1.47;100.00;100420.63;5044367;28;20031;-71
2023/12/01 04:57:46;;;;;;;69.47;32.13;;;;;;;-1.45;100.00;100426.75;5042965;28;20021;-69
2023/12/01 05:00:20;;;;;;;69.13;30.90;;;;;;;-1.46;100.00;100430.16;5044887;28;20033;-71
2023/12/01 05:02:53;;;;;;;70.75;32.50;;;;;;;-1.51;100.00;100435.97;5043113;28;20108;-69
2023/12/01 05:05:19;;;;;;;;;;;;;;;-1.33;100.00;100435.94;5044396;28;20558;-71
2023/12/01 05:07:49;;;;;;;68.43;32.38;;;;;;;-1.54;100.00;100436.72;5042524;28;20012;-71
2023/12/01 05:10:15;;;;;;;74.25;33.38;;;;;;;-1.53;100.00;100438.50;5044308;28;20049;-69
2023/12/01 05:12:42;;;;;;;74.43;32.70;;;;;;;-1.58;100.00;100435.66;5042263;28;20080;-70
2023/12/01 05:15:15;;;;;;;71.28;33.70;;;;;;;-1.54;100.00;100439.31;5045079;28;20036;-71
2023/12/01 05:17:42;;;;;;;77.70;34.33;;;;;;;-1.49;100.00;100435.22;5038906;28;20029;-71
2023/12/01 05:20:15;;;;;;;79.05;34.97;;;;;;;-1.43;100.00;100445.88;5045442;28;20111;-71
2023/12/01 05:22:41;;;;;;;82.53;35.90;;;;;;;-1.43;100.00;100440.69;5038669;28;20060;-72
2023/12/01 05:25:13;;;;;;;76.45;34.78;;;;;;;-1.40;100.00;100447.72;5043026;28;20033;-71
2023/12/01 05:27:39;;;;;;;74.78;33.67;;;;;;;-1.35;100.00;100450.53;5038191;28;20432;-71
2023/12/01 05:30:05;;;;;;;77.97;34.60;;;;;;;-1.38;100.00;100458.16;5045048;28;20051;-72
2023/12/01 05:32:31;;;;;;;76.97;34.92;;;;;;;-1.36;100.00;100451.34;5041666;28;20095;-74
2023/12/01 05:34:56;;;;;;;79.60;35.28;;;;;;;-1.45;100.00;100454.41;5043711;28;20025;-73
2023/12/01 05:37:21;;;;;;;82.18;35.95;;;;;;;-1.45;100.00;100462.19;5043052;28;20121;-72
2023/12/01 05:39:47;;;;;;;83.82;37.55;;;;;;;-1.47;100.00;100462.13;5042358;28;20061;-72
2023/12/01 05:42:12;;;;;;;86.43;37.28;;;;;;;-1.41;100.00;100464.13;5044165;28;20063;-73
2023/12/01 05:44:37;;;;;;;83.60;38.15;;;;;;;-1.39;100.00;100461.59;5041366;28;20034;-70
2023/12/01 05:47:03;;;;;;;77.85;35.92;;;;;;;-1.39;100.00;100466.78;5044308;28;20071;-73
2023/12/01 05:49:28;;;;;;;72.70;35.83;;;;;;;-1.41;100.00;100470.19;5042256;28;20048;-72
2023/12/01 05:51:53;;;;;;;70.95;34.97;;;;;;;-1.41;100.00;100472.78;5043094;28;20036;-73
2023/12/01 05:54:19;;;;;;;67.25;35.70;;;;;;;-1.42;100.00;100478.75;5043055;28;20433;-73
2023/12/01 05:56:44;;;;;;;66.65;34.50;;;;;;;-1.38;100.00;100486.69;5042022;28;20025;-73
2023/12/01 05:59:10;;;;;;;63.60;33.35;;;;;;;-1.37;100.00;100471.19;5044132;28;20116;-74
2023/12/01 06:01:36;;;;;;;64.82;34.40;;;;;;;-1.36;100.00;100475.56;5039654;28;20041;-73
2023/12/01 06:04:02;;;;;;;62.42;32.95;;;;;;;-1.35;100.00;100479.06;5044172;28;20025;-73
2023/12/01 06:06:27;;;;;;;61.03;33.08;;;;;;;-1.31;100.00;100473.19;5041623;28;20029;-74
2023/12/01 06:08:53;;;;;;;62.65;32.22;;;;;;;-1.28;100.00;100478.50;5042588;28;20041;-73
2023/12/01 06:11:18;;;;;;;57.95;31.85;;;;;;;-1.27;100.00;100488.06;5042982;28;20024;-71
2023/12/01 06:13:43;;;;;;;55.85;31.30;;;;;;;-1.31;100.00;100480.97;5041411;28;20057;-73
2023/12/01 06:16:09;;;;;;;56.65;31.83;;;;;;;-1.31;100.00;100480.97;5044091;28;20480;-74
2023/12/01 06:18:34;;;;;;;55.00;31.13;;;;;;;-1.29;100.00;100480.22;5041006;28;20029;-73
2023/12/01 06:21:00;;;;;;;54.88;32.10;;;;;;;-1.28;100.00;100478.50;5043581;28;20028;-72
2023/12/01 06:23:25;;;;;;;54.65;31.30;;;;;;;-1.29;100.00;100481.94;5041770;28;20526;-73
2023/12/01 06:25:51;;;;;;;55.60;32.17;;;;;;;-1.31;100.00;100480.97;5042391;28;20071;-73
2023/12/01 06:28:16;;;;;;;54.13;31.80;;;;;;;-1.26;100.00;100482.97;5043100;28;20067;-73
2023/12/01 06:30:41;;;;;;;58.35;34.47;;;;;;;-1.27;100.00;100489.00;5039708;28;20116;-73
2023/12/01 06:33:07;;;;;;;55.78;31.70;;;;;;;-1.27;100.00;100483.81;5044090;28;20469;-74
2023/12/01 06:35:32;;;;;;;56.15;33.63;;;;;;;-1.26;100.00;100489.88;5040727;28;20380;-73
2023/12/01 06:37:58;;;;;;;57.40;34.67;;;;;;;-1.25;100.00;100489.06;5046613;28;20033;-73
2023/12/01 06:40:23;;;;;;;54.40;32.53;;;;;;;-1.23;100.00;100484.81;5046096;28;20476;-73
2023/12/01 06:42:50;;;;;;;53.95;31.55;;;;;;;-1.23;100.00;100496.06;5045786;28;20104;-73
2023/12/01 06:45:17;;;;;;;52.10;30.45;;;;;;;-1.23;100.00;100498.66;5047204;28;20029;-73
2023/12/01 06:47:46;;;;;;;52.17;30.05;;;;;;;-1.25;100.00;100492.53;5045042;28;20033;-73
2023/12/01 06:50:14;;;;;;;55.38;31.48;;;;;;;-1.24;100.00;100489.13;5047869;28;20349;-73
2023/12/01 06:52:40;;;;;;;53.03;30.02;;;;;;;-1.17;100.00;100495.47;5044937;28;20456;-73
2023/12/01 06:55:07;;;;;;;52.25;29.05;;;;;;;-1.22;100.00;100489.19;5040265;28;20468;-71
2023/12/01 06:57:40;;;;;;;51.85;28.55;;;;;;;-1.25;100.00;100500.31;5047233;28;20554;-73
2023/12/01 07:00:07;;;;;;;50.75;29.08;;;;;;;-1.26;100.00;100493.34;5040293;28;20029;-73
2023/12/01 07:02:37;;;;;;;51.53;29.92;;;;;;;-1.26;100.00;100502.84;5047580;28;20033;-70
2023/12/01 07:05:02;;;;;;;51.50;29.77;;;;;;;-1.22;100.00;100502.16;5044287;28;20025;-71
2023/12/01 07:07:30;;;;;;;51.63;29.42;;;;;;;-1.19;100.00;100501.41;5046578;28;20542;-71
2023/12/01 07:09:57;;;;;;;51.65;28.98;;;;;;;-1.17;100.00;100503.25;5045258;28;20107;-71
2023/12/01 07:12:22;;;;;;;49.92;28.52;;;;;;;-1.16;100.00;100512.81;5045692;28;20436;-72
2023/12/01 07:14:48;;;;;;;48.38;27.45;;;;;;;-1.16;100.00;100512.81;5046202;28;20029;-72
2023/12/01 07:17:14;;;;;;;48.10;27.23;;;;;;;-1.16;100.00;100518.00;5044710;28;20042;-71
2023/12/01 07:19:40;;;;;;;47.80;27.30;;;;;;;-1.16;100.00;100520.59;5047383;28;20040;-71
2023/12/01 07:22:05;;;;;;;49.20;27.50;;;;;;;-1.15;100.00;100518.88;5039752;28;20024;-70
2023/12/01 07:24:31;;;;;;;51.55;32.35;;;;;;;-1.12;100.00;100517.34;5046856;28;20040;-71
2023/12/01 07:26:56;;;;;;;49.90;27.80;;;;;;;-1.12;100.00;100522.53;5044728;28;20029;-71
2023/12/01 07:29:21;;;;;;;48.70;27.33;;;;;;;-1.10;100.00;100522.59;5045430;28;20037;-70
2023/12/01 07:31:47;;;;;;;48.17;27.23;;;;;;;-1.09;100.00;100527.84;5046020;28;20025;-71
2023/12/01 07:34:12;;;;;;;47.70;27.08;;;;;;;-1.04;100.00;100525.47;5043878;28;20060;-72
2023/12/01 07:36:39;;;;;;;49.65;29.48;;;;;;;-1.04;100.00;100528.06;5047237;28;20048;-71
2023/12/01 07:39:05;;;;;;;49.70;30.00;;;;;;;-1.00;100.00;100518.72;5043504;28;20033;-71
2023/12/01 07:41:31;;;;;;;48.10;28.08;;;;;;;-0.95;100.00;100522.41;5046182;28;20033;-71
2023/12/01 07:43:57;;;;;;;50.20;29.10;;;;;;;-0.93;100.00;100528.56;5044655;28;20373;-71
2023/12/01 07:46:23;;;;;;;50.33;28.55;;;;;;;-0.90;100.00;100534.78;5045049;28;20044;-71
2023/12/01 07:48:48;;;;;;;50.75;29.50;;;;;;;-0.92;100.00;100522.53;5044917;28;20053;-71
2023/12/01 07:51:14;;;;;;;49.05;27.42;;;;;;;-0.85;100.00;100526.31;5042707;28;20040;-72
2023/12/01 07:53:40;;;;;;;52.45;28.92;;;;;;;-0.85;100.00;100526.31;5046563;28;20082;-70
2023/12/01 07:56:07;;;;;;;48.28;28.40;;;;;;;-0.89;100.00;100521.00;5042020;28;20101;-66
2023/12/01 07:58:32;;;;;;;47.97;26.75;;;;;;;-0.83;100.00;100532.44;5045059;28;20037;-74
2023/12/01 08:00:59;;;;;;;50.53;29.63;;;;;;;-0.83;100.00;100522.97;5042867;28;20032;-75
2023/12/01 08:03:24;;;;;;;47.25;27.70;;;;;;;-0.83;100.00;100522.97;5043706;28;20060;-71
2023/12/01 08:05:50;;;;;;;49.17;27.65;;;;;;;-0.81;100.00;100528.25;5045275;28;20107;-73
2023/12/01 08:08:15;;;;;;;49.20;29.05;;;;;;;-0.79;100.00;100526.59;5043379;28;20213;-73
2023/12/01 08:10:41;;;;;;;48.97;28.23;;;;;;;-0.72;100.00;100526.03;5046047;28;20052;-72
2023/12/01 08:13:08;;;;;;;49.88;28.92;;;;;;;-0.72;100.00;100524.31;5043080;28;20492;-74
2023/12/01 08:15:33;;;;;;;47.42;27.08;;;;;;;-0.70;100.00;100519.19;5044676;28;20480;-73
2023/12/01 08:18:00;;;;;;;49.15;27.95;;;;;;;-0.67;100.00;100524.56;5043853;28;20060;-73
2023/12/01 08:20:28;;;;;;;49.17;29.20;;;;;;;-0.68;100.00;100522.78;5045009;28;20507;-74
2023/12/01 08:22:54;;;;;;;49.55;28.05;;;;;;;-0.61;100.00;100535.22;5044306;28;20388;-74
2023/12/01 08:25:21;;;;;;;47.70;27.65;;;;;;;-0.62;100.00;100540.34;5043960;28;20025;-72
2023/12/01 08:27:47;;;;;;;50.78;28.65;;;;;;;-0.60;100.00;100536.09;5045357;28;20029;-73
2023/12/01 08:30:12;;;;;;;49.55;27.95;;;;;;;-0.55;100.00;100535.47;5043096;28;20029;-73
2023/12/01 08:32:38;;;;;;;49.58;28.13;;;;;;;-0.51;100.00;100546.00;5046191;28;20029;-72
2023/12/01 08:35:04;;;;;;;48.95;29.15;;;;;;;-0.57;100.00;100541.41;5042944;28;20034;-66
2023/12/01 08:37:30;;;;;;;50.17;29.45;;;;;;;-0.53;100.00;100543.31;5045225;28;20022;-70
2023/12/01 08:39:55;;;;;;;50.50;29.05;;;;;;;-0.52;100.00;100545.13;5044237;28;20029;-70
2023/12/01 08:42:20;;;;;;;48.13;27.92;;;;;;;-0.50;100.00;100553.84;5043784;28;20031;-69
2023/12/01 08:44:46;;;;;;;50.00;28.52;;;;;;;-0.50;100.00;100553.84;5044931;28;20104;-71
2023/12/01 08:47:13;;;;;;;51.35;29.90;;;;;;;-0.44;100.00;100553.22;5042402;28;20037;-69
2023/12/01 08:49:39;;;;;;;50.53;27.95;;;;;;;-0.42;100.00;100556.81;5045709;28;20594;-69
2023/12/01 08:52:06;;;;;;;46.40;26.00;;;;;;;-0.41;100.00;100558.56;5042148;28;20037;-70
2023/12/01 08:54:31;;;;;;;46.67;26.10;;;;;;;-0.37;100.00;100555.28;5045148;28;20503;-71
2023/12/01 08:56:58;;;;;;;46.22;25.80;;;;;;;-0.36;100.00;100560.53;5043226;28;20037;-71
2023/12/01 08:59:24;;;;;;;42.67;24.15;;;;;;;-0.32;100.00;100553.78;5043539;28;20111;-71
2023/12/01 09:01:49;;;;;;;41.97;21.92;;;;;;;-0.29;100.00;100563.41;5043718;28;20060;-71
2023/12/01 09:04:15;;;;;;;41.65;23.35;;;;;;;-0.29;100.00;100556.53;5042456;28;20026;-72
2023/12/01 09:06:40;;;;;;;40.03;21.90;;;;;;;-0.25;100.00;100566.22;5045258;28;20044;-71
2023/12/01 09:09:05;;;;;;;38.30;21.00;;;;;;;-0.23;100.00;100559.38;5041881;28;20041;-71
2023/12/01 09:11:31;;;;;;;36.08;18.33;;;;;;;-0.23;100.00;100563.69;5044383;28;20061;-71
2023/12/01 09:13:56;;;;;;;35.63;17.95;;;;;;;-0.26;100.00;100561.84;5042985;28;20045;-71
2023/12/01 09:16:23;;;;;;;34.90;18.33;;;;;;;-0.23;100.00;100569.78;5043299;28;20104;-71
2023/12/01 09:18:49;;;;;;;35.58;18.63;;;;;;;-0.19;100.00;100565.56;5042795;28;20098;-71
2023/12/01 09:21:14;;;;;;;33.80;17.15;;;;;;;-0.19;100.00;100566.50;5042017;28;20021;-69
2023/12/01 09:23:40;;;;;;;33.90;17.98;;;;;;;-0.14;100.00;100569.28;5045102;28;20484;-71
2023/12/01 09:26:06;;;;;;;34.22;17.48;;;;;;;-0.11;100.00;100577.19;5041705;28;20037;-72
2023/12/01 09:28:33;;;;;;;35.10;18.20;;;;;;;-0.11;100.00;100577.19;5044660;28;20035;-71
2023/12/01 09:31:04;;;;;;;34.97;17.83;;;;;;;-0.08;100.00;100584.25;5042666;28;20043;-71
2023/12/01 09:33:37;;;;;;;32.08;16.42;;;;;;;-0.10;100.00;100580.69;5099524;27;1264748;-71
2023/12/01 09:36:04;;;;;;;34.58;17.88;;;;;;;-0.13;100.00;100580.56;5120213;28;20483;-72
2023/12/01 09:38:30;;;;;;;32.78;17.15;;;;;;;-0.13;100.00;100581.47;5120604;27;20111;-72
2023/12/01 09:40:57;;;;;;;33.38;16.90;;;;;;;-0.09;100.00;100590.25;5120286;28;20119;-71
2023/12/01 09:43:23;;;;;;;34.40;17.10;;;;;;;-0.07;100.00;100591.22;5121401;27;20038;-70
2023/12/01 09:45:49;;;;;;;33.30;17.30;;;;;;;-0.04;100.00;100594.84;5119277;28;20032;-71
2023/12/01 09:48:18;;;;;;;33.65;16.40;;;;;;;-0.07;100.00;100586.91;5121040;28;20032;-71
2023/12/01 09:50:44;;;;;;;32.72;16.70;;;;;;;-0.01;100.00;100596.69;5114905;28;20023;-74
2023/12/01 09:53:11;;;;;;;33.00;16.63;;;;;;;0.02;100.00;100595.94;5122203;28;20035;-73
2023/12/01 09:55:36;;;;;;;32.20;16.88;;;;;;;0.08;100.00;100596.19;5119256;27;20391;-74
2023/12/01 09:58:02;;;;;;;32.65;17.77;;;;;;;0.03;100.00;100600.28;5120966;28;20024;-73
2023/12/01 10:00:27;;;;;;;34.28;18.13;;;;;;;0.05;100.00;100601.28;5120959;27;20473;-73
2023/12/01 10:02:52;;;;;;;32.58;17.83;;;;;;;0.04;100.00;100596.88;5119401;28;20020;-74
2023/12/01 10:05:21;;;;;;;32.45;16.38;;;;;;;0.03;100.00;100593.41;5121621;28;20027;-73
2023/12/01 10:07:48;;;;;;;32.35;16.92;;;;;;;0.09;100.00;100597.97;5118632;28;20036;-74
2023/12/01 10:10:22;;;;;;;32.55;17.48;;;;;;;0.20;100.00;100601.91;5103600;28;20072;-74
2023/12/01 10:12:58;;;;;;;32.55;16.85;;;;;;;0.21;100.00;100593.28;5114846;28;20497;-74
2023/12/01 10:15:24;;;;;;;33.00;17.55;;;;;;;0.20;100.00;100593.22;5100118;28;20478;-73
2023/12/01 10:17:51;;;;;;;32.75;17.10;;;;;;;0.21;100.00;100595.00;5098763;28;20036;-74
2023/12/01 10:20:21;;;;;;;32.92;16.98;;;;;;;0.23;100.00;100591.63;5101322;28;20047;-73
2023/12/01 10:22:51;;;;;;;32.30;17.05;;;;;;;0.24;100.00;100592.53;5097784;28;20037;-73
2023/12/01 10:25:16;;;;;;;32.28;17.33;;;;;;;0.27;100.00;100597.84;5101296;28;20498;-74
2023/12/01 10:27:51;;;;;;;32.58;17.52;;;;;;;0.33;100.00;100593.78;5097618;28;20074;-74
2023/12/01 10:30:16;;;;;;;31.90;16.92;;;;;;;0.39;100.00;100593.16;5094086;28;20028;-69
2023/12/01 10:32:42;;;;;;;32.17;16.98;;;;;;;0.42;100.00;100598.47;5101129;28;20063;-69
2023/12/01 10:35:07;;;;;;;32.90;17.05;;;;;;;0.48;100.00;100593.56;5097916;28;20168;-71
2023/12/01 10:37:35;;;;;;;32.78;16.95;;;;;;;0.55;100.00;100597.28;5099735;28;20032;-72
2023/12/01 10:40:05;;;;;;;32.30;17.15;;;;;;;0.58;100.00;100597.41;5099169;28;20069;-73
2023/12/01 10:42:33;;;;;;;31.67;16.58;;;;;;;0.59;100.00;100598.31;5099528;28;20028;-71
2023/12/01 10:45:01;;;;;;;32.75;16.33;;;;;;;0.61;100.00;100592.34;5085508;28;20431;-74
2023/12/01 10:47:27;;;;;;;30.85;16.17;;;;;;;0.66;100.00;100593.41;5085058;28;20016;-74
2023/12/01 10:49:56;;;;;;;32.05;16.80;;;;;;;0.67;100.00;100590.00;5086436;28;20035;-67
2023/12/01 10:52:23;;;;;;;30.83;16.30;;;;;;;0.71;100.00;100590.09;5084366;28;20058;-72
2023/12/01 10:54:49;;;;;;;37.78;23.85;;;;;;;0.74;100.00;100591.09;5086907;28;20036;-73
2023/12/01 10:57:32;;;;;;;30.65;16.83;;;;;;;0.77;100.00;100591.25;5083792;28;20422;-73
2023/12/01 10:59:59;;;;;;;;;;;;;;;0.89;100.00;100589.94;5084121;28;20113;-73